Forside
METAR-TAF:

METAR-TAF

Lufthavne :

Flugplatz Hamburg-Finkenwerder

Finkenwerder, Tyskland

Breddekreds: 53-32N, længdekreds: 009-50E, højde: 5 m

Aktuelle vejr

Denne rapport blev lavet for 38 minutter siden, kl. 21:20 UTC
Vind 10 kt fra sydøst, varierende mellem øst og sydsydøst
Temperatur 8°C
Fugtighed 93%
Tryk 1009 hPa
Sigt: 8000 m

METAR: EDHI 082120Z AUTO 13010KT 100V160 8000 // OVC037/// 08/07 Q1009

Tid: 23:58 (21:58 UTC)


TAF: fraværende

Vejrobservationer og prognoser fra mere end 4000 lufthavne (METAR og TAF).

De gule og røde prikker repræsenterer de meteorologiske stationer.

Flyt musen over at se navnet på stationen.

Så klik over at se vejr observationer og prognoser.

At skifte det kort: Klik på de grønne knapper med et sort kors for at zoome ind; på den grønne knap med en bindestreg for at zoome ud; eller på de grønne pile for tilstødende kort.


METAR-TAF: